southbeachswimsuits.com alexa rank chart, southbeachswimsuits.com alexa rank daily changes

southbeachswimsuits.com alexa rank chart, southbeachswimsuits.com alexa rank daily changes

southbeachswimsuits.com
Actual rank:
309 876

RANK HISTORY

Date Rank Diff
2017/05/24 309 876 -3 924
2017/05/23 313 800 -25 495
2017/05/22 339 295 -13 224
2017/05/21 352 519 -6 048
2017/05/20 358 567 -26 512
2017/05/19 385 079 +2 413
2017/05/18 382 666 +3 181
2017/05/17 379 485 +363
2017/05/16 379 122 -6 821
2017/05/15 385 943 +4 923
2017/05/14 381 020 -468
2017/05/13 381 488 -1 250
2017/05/12 382 738 +8 199
2017/05/11 374 539 -831
2017/05/10 375 370 +19 178
2017/05/09 356 192 +4 293
2017/05/08 351 899 +4 097
2017/05/07 347 802 -356
2017/05/06 348 158 -9 323
2017/05/05 357 481 -15 727
2017/05/04 373 208 -11 375
2017/05/03 384 583 +8 749
2017/05/02 375 834 +17 507
2017/05/01 358 327 +15 569
2017/04/30 342 758 +8 518
2017/04/29 334 240 +1 704
2017/04/28 332 536 -35 129
2017/04/27 367 665 -23 650
2017/04/26 391 315 -22 361
2017/04/25 413 676 +1 126
2017/04/24 412 550 +14 386
2017/04/23 398 164 -2 173
2017/04/22 400 337 -1 548
2017/04/21 401 885 +5 923
2017/04/20 395 962 +5 570
2017/04/19 390 392 -9 887
2017/04/18 400 279 +5 001
2017/04/17 395 278 +26 040
2017/04/16 369 238 -4 250
2017/04/15 373 488 +2 010
2017/04/14 371 478 -2 977
2017/04/13 374 455 +4 822
2017/04/12 369 633 -6 210
2017/04/11 375 843 +4 734
2017/04/10 371 109 -13 364
2017/04/09 384 473 -7 906
2017/04/08 392 379 -2 039
2017/04/07 394 418 -10 878
2017/04/06 405 296 -2 254
2017/04/05 407 550 +6 003
2017/04/04 401 547 +8 053
2017/04/03 393 494 +21 696
2017/04/02 371 798 +54
2017/04/01 371 744 +6 927
2017/03/31 364 817 -15 735
2017/03/30 380 552 -9 416
2017/03/29 389 968 -3 078
2017/03/28 393 046 -1 380
2017/03/27 394 426 -7 753
2017/03/26 402 179 +9 418
2017/03/25 392 761

WIDGET FOR YOUR SITE

DOMAINS WITH THE NEAREST RANK

Domain Rank
satoya-boshu.net 309 871
comedycentral.com.au 309 872
juridischloket.nl 309 873
sensa.si 309 874
hr-pay.com 309 875
southbeachswimsuits.com 309 876
no-trouble.go.jp 309 877
pise.info 309 878
camera-girls.net 309 879
hfj.ir 309 880
crozcast.com 309 881

DOMAINS WITH THE NEAREST RANK BY TLD .com

Domain Rank
usahawan.com 309 866
savorjapan.com 309 867
hrdive.com 309 868
dizajnzona.com 309 870
hr-pay.com 309 875
southbeachswimsuits.com 309 876
crozcast.com 309 881
monhammer.com 309 882
elnueve.com 309 883
mmatycoon.com 309 886
speedutilities.com 309 887